aviador You're here:

KLFT Decoded Metar

LAFAYETTE in LA, USA
Report Time2017-11-23 19:53:00
UTC Time2017-11-23 20:17:00
Flight Rules vfr VFR
Wind360° at 10 kt
W.Decomp.*RWY 04: 7.3 kt HW 6.8 kt LCW
RWY 29: 3.9 kt HW 9.2 kt RCW
Visibility9999 m
Phenomena:N/A
Clouds:N/A
Expected CloudBase > 7,200 ft AGL from Temp-Dew spread
CeilingNone
Temp16°C (ISA +1)
Dew Point-2°C (29% RH)
AAT10.1°C
QNH1018 hPa
Density Alt69 ft
Elevation36 ft
Report Wrong Elevation
Raw Report
KLFT 231953Z 36010KT 10SM CLR 16/M02 A3006 RMK AO2 SLP178
T01561022=

Extra information for KLFT:More info

Metar Taf Metar & Taf Last 4 Metars F.Rules Stats Wind Profile Meteogram Temp Stats Airport Information Weather charts Add Link Nearby VenuesMetar ALERT Operation Metar Decoded Social comments

AIRNAV info for KLFT